Detall de PIREP

Printer-friendly versionPDF version

[2014/05/27 09:42:00]
Flight IATA:CT2304
Pilot Number:042
Company ICAO:CAT
Aircraft Type:F100/A
PAX:40
Aircraft Registration:PFJ
Departing Airport: LIEA
Destination Airport: LIBC
Alternate Airport:LIBD
Online: VATSIM
Route:KOLUS UM603 PNZ UM729 CDC
Flight Level:F300
No Slew and time accel
No pause
Crash detect
Detect pilot in Cockpit between each 30 and 45 minutes
09:42 Zero fuel Weight: 81825 Lbs, Fuel Weight: 15767 Lbs
09:42 VATSIM:LIEA 270920Z 28010KT 250V320 9999 FEW025 19/11 Q1020
09:42 VATSIM:LIBC 270850Z 10005KT 070V150 CAVOK 25/13 Q1015
09:44 Parking Brakes off
09:47 Take-off
09:47 Take off Weight: 97223 Lbs
09:47 Wind: 269º @ 011 Knots Heading: 206º
09:47 POS N40º 37´ 44´´ E008º 17´ 20´´
09:47 Gear Up: 168 Knots
09:47 Flaps:2 at 168 Knots
09:48 Flaps:1 at 174 Knots
09:48 Flaps:0 at 186 Knots
10:02 Wind:269º@063 Knots Heading: 083º Ground Speed: 373 Knots Altitude 28822 ft
10:12 TOC
10:12 Fuel Weight: 12600 Lb
10:17 Wind:228º@038 Knots Heading: 089º Ground Speed: 490 Knots Altitude 30052 ft
10:32 Wind:245º@017 Knots Heading: 131º Ground Speed: 469 Knots Altitude 30091 ft
10:38 TOD
10:38 Fuel Weight: 10322 Lb
10:47 Wind:229º@037 Knots Heading: 136º Ground Speed: 347 Knots Altitude 17588 ft
10:57 Flaps:1 at 220 Knots
10:58 Gear Down: 191 Knots
10:58 Flaps:2 at 191 Knots
10:58 Flaps:3 at 190 Knots
11:01 TouchDown:Rate -276 ft/min Speed: 141 Knots
11:01 VATSIM:LIBC 270950Z 12007KT 090V160 CAVOK 25/12 Q1015
11:01 Land
11:01 Wind:234º@006 Knots
11:01 Heading: 183º
11:01 Flight Duration: 01:14
11:01 Landing Weight: 91034 Lbs
11:01 POS N38º 59´ 33´´ E017º 04´ 53´´
11:03 Parking brakes on
11:03 Block to Block Duration: 01:19
11:03 Final Fuel: 9122 Lbls
11:03 Spent Fuel: 6644 Lbls
11:03 Flight Length: 480 NM
11:03 TOD Land Length: 118 NM

Exportar CSV

Powered by Drupal - Modified by Danger4k